createdAt,value
2019-05-07T00:01:23.090Z,100659.72
2019-05-07T00:03:53.599Z,100661.86
2019-05-07T00:06:24.617Z,100666.91
2019-05-07T00:08:55.362Z,100661.52
2019-05-07T00:11:26.266Z,100661.39
2019-05-07T00:13:57.312Z,100665.34
2019-05-07T00:16:28.353Z,100663.16
2019-05-07T00:18:59.312Z,100666.63
2019-05-07T00:21:32.561Z,100668.55
2019-05-07T00:24:02.625Z,100670.45
2019-05-07T00:26:34.345Z,100663.14
2019-05-07T00:29:04.991Z,100668.90
2019-05-07T00:31:35.656Z,100667.68
2019-05-07T00:34:06.651Z,100674.26
2019-05-07T00:36:55.152Z,100672.59
2019-05-07T00:39:27.793Z,100669.80
2019-05-07T00:42:00.116Z,100667.63
2019-05-07T00:44:32.804Z,100667.46
2019-05-07T00:47:03.594Z,100627.06
2019-05-07T00:49:34.584Z,100666.31
2019-05-07T00:52:05.277Z,100659.71
2019-05-07T00:54:36.232Z,100663.03
2019-05-07T00:57:07.923Z,100662.44
2019-05-07T00:59:39.145Z,100661.53
2019-05-07T01:02:09.790Z,100652.67
2019-05-07T01:04:42.280Z,100663.61
2019-05-07T01:07:13.128Z,100666.06
2019-05-07T01:09:44.182Z,100662.11
2019-05-07T01:12:15.200Z,100663.53
2019-05-07T01:14:46.920Z,100656.80
2019-05-07T01:17:17.905Z,100662.48
2019-05-07T01:19:48.938Z,100657.17
2019-05-07T01:22:22.056Z,100660.55
2019-05-07T01:24:53.809Z,100660.98
2019-05-07T01:27:24.815Z,100656.80
2019-05-07T01:29:55.858Z,100652.27
2019-05-07T01:32:28.452Z,100659.70
2019-05-07T01:35:05.003Z,100655.09
2019-05-07T01:37:36.168Z,100658.20
2019-05-07T01:40:07.565Z,100659.01
2019-05-07T01:42:38.645Z,100653.97
2019-05-07T01:45:12.933Z,100652.41
2019-05-07T01:47:43.392Z,100656.84
2019-05-07T01:50:14.966Z,100663.44
2019-05-07T01:52:45.982Z,100651.52
2019-05-07T01:55:17.096Z,100655.09
2019-05-07T01:57:48.044Z,100657.06
2019-05-07T02:00:22.273Z,100651.42
2019-05-07T02:02:56.986Z,100650.98
2019-05-07T02:05:34.651Z,100659.28
2019-05-07T02:08:07.268Z,100650.80
2019-05-07T02:10:42.870Z,100654.41
2019-05-07T02:13:13.946Z,100655.88
2019-05-07T02:15:57.442Z,100654.90
2019-05-07T02:18:17.377Z,100654.31
2019-05-07T02:20:48.023Z,100632.98
2019-05-07T02:23:19.059Z,100651.05
2019-05-07T02:25:50.051Z,100653.06
2019-05-07T02:28:22.266Z,100720.43
2019-05-07T02:30:53.662Z,100737.41
2019-05-07T02:33:24.430Z,100635.15
2019-05-07T02:35:55.154Z,100644.52
2019-05-07T02:38:33.623Z,100649.14
2019-05-07T02:41:04.317Z,100645.56
2019-05-07T02:43:35.007Z,100645.03
2019-05-07T02:46:26.097Z,100638.18
2019-05-07T02:49:07.050Z,100641.98
2019-05-07T02:51:39.353Z,100644.39
2019-05-07T02:54:28.548Z,100635.81
2019-05-07T02:56:59.211Z,100638.33
2019-05-07T02:59:33.351Z,100646.02
2019-05-07T03:02:06.056Z,100641.45
2019-05-07T03:04:37.041Z,100638.81
2019-05-07T03:07:08.045Z,100638.97
2019-05-07T03:09:39.099Z,100631.47
2019-05-07T03:12:12.955Z,100635.55
2019-05-07T03:14:43.801Z,100638.56
2019-05-07T03:17:15.273Z,100636.41
2019-05-07T03:19:47.868Z,100632.30
2019-05-07T03:22:22.877Z,100639.03
2019-05-07T03:25:08.532Z,100638.56
2019-05-07T03:27:39.531Z,100639.91
2019-05-07T03:30:16.888Z,100637.13
2019-05-07T03:32:48.680Z,100641.89
2019-05-07T03:35:26.655Z,100641.89
2019-05-07T03:37:54.990Z,100643.70
2019-05-07T03:40:25.972Z,100643.45
2019-05-07T03:42:56.661Z,100645.37
2019-05-07T03:45:37.992Z,100645.24
2019-05-07T03:48:16.072Z,100641.73
2019-05-07T03:50:46.717Z,100642.92
2019-05-07T03:53:17.392Z,100641.52
2019-05-07T03:55:48.063Z,100643.84
2019-05-07T03:58:19.042Z,100644.71
2019-05-07T04:00:53.222Z,100650.66
2019-05-07T04:03:24.355Z,100653.02
2019-05-07T04:05:55.431Z,100663.39
2019-05-07T04:08:26.370Z,100657.41
2019-05-07T04:10:57.213Z,100660.41
2019-05-07T04:13:28.239Z,100660.44
2019-05-07T04:15:58.914Z,100653.31
2019-05-07T04:18:32.640Z,100659.16
2019-05-07T04:21:03.829Z,100662.57
2019-05-07T04:23:35.266Z,100660.42
2019-05-07T04:26:08.546Z,100663.50
2019-05-07T04:28:56.970Z,100666.84
2019-05-07T04:31:29.251Z,100664.50
2019-05-07T04:34:03.626Z,100669.16
2019-05-07T04:36:35.246Z,100667.12
2019-05-07T04:39:08.822Z,100670.02
2019-05-07T04:41:39.488Z,100672.05
2019-05-07T04:44:13.722Z,100670.02
2019-05-07T04:46:47.132Z,100674.64
2019-05-07T04:49:15.560Z,100668.61
2019-05-07T04:51:52.906Z,100678.59
2019-05-07T04:54:23.843Z,100677.56
2019-05-07T04:56:54.587Z,100673.38
2019-05-07T04:59:25.762Z,100676.52
2019-05-07T05:01:58.142Z,100683.31
2019-05-07T05:04:33.966Z,100679.54
2019-05-07T05:07:02.633Z,100687.12
2019-05-07T05:09:33.870Z,100686.27
2019-05-07T05:12:04.824Z,100686.34
2019-05-07T05:14:36.587Z,100683.73
2019-05-07T05:17:07.550Z,100679.77
2019-05-07T05:19:39.480Z,100680.88
2019-05-07T05:22:22.150Z,100689.44
2019-05-07T05:25:12.898Z,100679.58
2019-05-07T05:27:43.890Z,100687.16
2019-05-07T05:30:16.964Z,100691.52
2019-05-07T05:32:47.638Z,100688.15
2019-05-07T05:35:18.738Z,100682.88
2019-05-07T05:37:52.067Z,100682.88
2019-05-07T05:40:23.532Z,100685.98
2019-05-07T05:42:57.484Z,100677.97
2019-05-07T05:45:29.995Z,100688.16
2019-05-07T05:48:05.522Z,100684.81
2019-05-07T05:50:34.767Z,100682.30
2019-05-07T05:53:07.508Z,100684.10
2019-05-07T05:55:39.650Z,100687.23
2019-05-07T05:58:23.999Z,100682.52
2019-05-07T06:01:13.115Z,100692.59
2019-05-07T06:03:45.461Z,100692.16
2019-05-07T06:06:27.634Z,100691.77
2019-05-07T06:09:15.788Z,100694.37
2019-05-07T06:12:02.744Z,100690.63
2019-05-07T06:14:35.570Z,100690.84
2019-05-07T06:17:24.190Z,100694.30
2019-05-07T06:20:02.982Z,100695.83
2019-05-07T06:22:49.136Z,100696.23
2019-05-07T06:25:24.876Z,100693.74
2019-05-07T06:27:53.880Z,100697.05
2019-05-07T06:30:24.715Z,100689.60
2019-05-07T06:32:55.560Z,100688.85
2019-05-07T06:35:26.298Z,100695.91
2019-05-07T06:37:57.174Z,100690.34
2019-05-07T06:40:33.417Z,100698.37
2019-05-07T06:43:22.382Z,100694.27
2019-05-07T06:46:02.428Z,100698.81
2019-05-07T06:48:41.897Z,100700.34
2019-05-07T06:51:05.739Z,100703.64
2019-05-07T06:53:36.673Z,100703.05
2019-05-07T06:56:07.725Z,100698.17
2019-05-07T06:58:48.703Z,100698.16
2019-05-07T07:01:22.821Z,100697.45
2019-05-07T07:04:09.068Z,100685.14
2019-05-07T07:06:48.814Z,100689.52
2019-05-07T07:09:33.370Z,100690.91
2019-05-07T07:12:06.103Z,100688.92
2019-05-07T07:14:37.161Z,100682.97
2019-05-07T07:17:07.848Z,100683.02
2019-05-07T07:19:38.792Z,100690.64
2019-05-07T07:22:09.757Z,100690.98
2019-05-07T07:24:42.419Z,100695.70
2019-05-07T07:27:13.552Z,100689.31
2019-05-07T07:29:57.685Z,100698.55
2019-05-07T07:32:31.760Z,100690.73
2019-05-07T07:35:03.009Z,100691.09
2019-05-07T07:37:38.010Z,100689.55
2019-05-07T07:40:22.442Z,100688.73
2019-05-07T07:42:53.241Z,100689.61
2019-05-07T07:45:23.925Z,100687.41
2019-05-07T07:47:54.874Z,100685.13
2019-05-07T07:50:25.913Z,100691.66
2019-05-07T07:52:57.650Z,100680.56
2019-05-07T07:55:33.105Z,100690.14
2019-05-07T07:58:22.159Z,100690.87
2019-05-07T08:01:02.692Z,100679.90
2019-05-07T08:03:33.399Z,100681.11
2019-05-07T08:06:04.351Z,100677.28
2019-05-07T08:08:35.029Z,100673.52
2019-05-07T08:11:05.704Z,100674.09
2019-05-07T08:13:36.949Z,100680.52
2019-05-07T08:16:07.610Z,100680.91
2019-05-07T08:18:38.666Z,100676.78
2019-05-07T08:21:09.374Z,100685.69
2019-05-07T08:23:42.262Z,100679.58
2019-05-07T08:26:12.722Z,100687.94
2019-05-07T08:28:43.526Z,100695.05
2019-05-07T08:31:16.177Z,100690.77
2019-05-07T08:33:57.553Z,100694.84
2019-05-07T08:36:28.228Z,100693.21
2019-05-07T08:38:59.016Z,100686.34
2019-05-07T08:41:31.953Z,100684.67
2019-05-07T08:44:11.783Z,100679.83
2019-05-07T08:46:54.489Z,100683.98
2019-05-07T08:49:35.942Z,100684.34
2019-05-07T08:52:03.036Z,100681.13
2019-05-07T08:54:34.102Z,100673.64
2019-05-07T08:57:04.964Z,100679.35
2019-05-07T08:59:37.354Z,100681.02
2019-05-07T09:02:08.464Z,100680.13
2019-05-07T09:04:39.139Z,100678.96
2019-05-07T09:07:12.778Z,100671.84
2019-05-07T09:09:44.577Z,100676.55
2019-05-07T09:12:17.017Z,100667.98
2019-05-07T09:14:48.353Z,100663.63
2019-05-07T09:17:19.407Z,100668.67
2019-05-07T09:19:52.243Z,100659.26
2019-05-07T09:22:23.154Z,100664.42
2019-05-07T09:24:54.014Z,100666.67
2019-05-07T09:27:26.670Z,100676.67
2019-05-07T09:30:12.638Z,100666.82
2019-05-07T09:33:02.362Z,100658.63
2019-05-07T09:35:39.782Z,100656.66
2019-05-07T09:38:12.037Z,100654.30
2019-05-07T09:40:42.971Z,100664.25
2019-05-07T09:43:13.685Z,100663.77
2019-05-07T09:45:44.631Z,100665.18
2019-05-07T09:48:15.397Z,100663.25
2019-05-07T09:50:46.067Z,100667.55
2019-05-07T09:53:16.771Z,100663.22
2019-05-07T09:55:47.446Z,100661.27
2019-05-07T09:58:34.568Z,100664.75
2019-05-07T10:00:51.229Z,100660.11
2019-05-07T10:03:22.769Z,100662.84
2019-05-07T10:05:53.710Z,100662.62
2019-05-07T10:08:24.370Z,100670.48
2019-05-07T10:10:55.673Z,100673.08
2019-05-07T10:13:28.149Z,100673.08
2019-05-07T10:15:59.816Z,100674.09
2019-05-07T10:18:32.044Z,100661.66
2019-05-07T10:21:03.107Z,100661.38
2019-05-07T10:23:33.858Z,100657.10
2019-05-07T10:26:05.604Z,100659.60
2019-05-07T10:28:37.590Z,100663.02
2019-05-07T10:31:08.268Z,100669.23
2019-05-07T10:33:38.972Z,100657.50
2019-05-07T10:36:09.977Z,100653.48
2019-05-07T10:38:41.030Z,100663.59
2019-05-07T10:41:12.430Z,100653.23
2019-05-07T10:43:43.177Z,100654.80
2019-05-07T10:46:21.315Z,100655.09
2019-05-07T10:48:57.003Z,100655.23
2019-05-07T10:51:28.023Z,100655.89
2019-05-07T10:53:58.778Z,100651.52
2019-05-07T10:56:29.586Z,100652.71
2019-05-07T10:59:02.661Z,100655.40
2019-05-07T11:01:35.968Z,100661.43
2019-05-07T11:04:06.801Z,100663.24
2019-05-07T11:06:38.946Z,100652.36
2019-05-07T11:09:10.415Z,100649.84
2019-05-07T11:11:42.359Z,100651.84
2019-05-07T11:14:13.195Z,100653.42
2019-05-07T11:16:52.171Z,100657.09
2019-05-07T11:19:24.908Z,100661.31
2019-05-07T11:21:56.651Z,100658.86
2019-05-07T11:24:27.504Z,100656.12
2019-05-07T11:26:58.445Z,100653.16
2019-05-07T11:29:32.781Z,100653.23
2019-05-07T11:32:06.271Z,100656.81
2019-05-07T11:34:37.594Z,100649.19
2019-05-07T11:37:08.495Z,100648.31
2019-05-07T11:39:39.519Z,100639.88
2019-05-07T11:42:14.742Z,100649.70
2019-05-07T11:44:46.657Z,100642.92
2019-05-07T11:47:22.542Z,100641.97
2019-05-07T11:50:12.006Z,100632.71
2019-05-07T11:52:48.873Z,100626.64
2019-05-07T11:55:19.861Z,100627.45
2019-05-07T11:57:51.829Z,100628.81
2019-05-07T12:00:29.145Z,100622.91
2019-05-07T12:03:02.116Z,100628.17
2019-05-07T12:05:33.325Z,100628.78
2019-05-07T12:08:04.349Z,100625.13
2019-05-07T12:10:35.432Z,100628.53
2019-05-07T12:13:06.218Z,100633.61
2019-05-07T12:15:38.288Z,100628.78
2019-05-07T12:18:09.364Z,100634.36
2019-05-07T12:20:40.404Z,100626.22
2019-05-07T12:23:12.143Z,100633.95
2019-05-07T12:25:43.116Z,100635.09
2019-05-07T12:28:17.104Z,100635.02
2019-05-07T12:31:09.611Z,100631.81
2019-05-07T12:33:46.405Z,100625.22
2019-05-07T12:36:19.048Z,100618.55
2019-05-07T12:38:49.816Z,100618.47
2019-05-07T12:41:35.718Z,100620.84
2019-05-07T12:44:08.418Z,100616.18
2019-05-07T12:46:39.688Z,100618.86
2019-05-07T12:49:11.982Z,100619.71
2019-05-07T12:51:44.508Z,100606.64
2019-05-07T12:54:22.822Z,100603.66
2019-05-07T12:56:55.616Z,100600.77
2019-05-07T12:59:27.646Z,100602.59
2019-05-07T13:02:34.811Z,100589.56
2019-05-07T13:04:52.179Z,100594.30
2019-05-07T13:07:22.862Z,100603.23
2019-05-07T13:09:54.641Z,100598.62
2019-05-07T13:12:25.607Z,100595.84
2019-05-07T13:14:57.264Z,100589.19
2019-05-07T13:17:28.040Z,100577.80
2019-05-07T13:20:01.588Z,100587.70
2019-05-07T13:22:47.863Z,100579.19
2019-05-07T13:25:28.265Z,100577.09
2019-05-07T13:28:14.619Z,100576.55
2019-05-07T13:30:57.968Z,100567.72
2019-05-07T13:33:42.450Z,100566.22
2019-05-07T13:36:13.881Z,100571.17
2019-05-07T13:38:52.621Z,100566.22
2019-05-07T13:41:25.507Z,100570.88
2019-05-07T13:44:12.223Z,100576.55
2019-05-07T13:46:45.034Z,100566.36
2019-05-07T13:49:16.673Z,100560.77
2019-05-07T13:52:02.546Z,100558.81
2019-05-07T13:54:21.813Z,100554.27
2019-05-07T13:56:52.664Z,100557.05
2019-05-07T13:59:23.772Z,100551.51
2019-05-07T14:02:04.488Z,100548.44
2019-05-07T14:04:33.948Z,100554.13
2019-05-07T14:07:07.387Z,100544.30
2019-05-07T14:09:38.807Z,100541.34
2019-05-07T14:12:12.142Z,100537.70
2019-05-07T14:14:47.612Z,100533.72
2019-05-07T14:17:25.284Z,100523.45
2019-05-07T14:19:57.393Z,100529.34
2019-05-07T14:22:29.151Z,100535.03
2019-05-07T14:25:00.233Z,100533.13
2019-05-07T14:27:32.156Z,100530.23
2019-05-07T14:30:03.586Z,100526.18
2019-05-07T14:32:39.086Z,100534.60
2019-05-07T14:35:28.396Z,100524.50
2019-05-07T14:38:01.015Z,100517.95
2019-05-07T14:40:32.373Z,100517.22
2019-05-07T14:43:04.906Z,100523.41
2019-05-07T14:45:35.725Z,100516.39
2019-05-07T14:48:06.735Z,100516.80
2019-05-07T14:50:38.036Z,100517.96
2019-05-07T14:53:09.305Z,100512.53
2019-05-07T14:55:41.844Z,100518.87
2019-05-07T14:58:14.053Z,100517.59
2019-05-07T15:00:45.095Z,100511.98
2019-05-07T15:03:16.138Z,100509.77
2019-05-07T15:05:47.264Z,100514.13
2019-05-07T15:08:17.957Z,100506.12
2019-05-07T15:10:52.300Z,100505.20
2019-05-07T15:13:23.584Z,100508.55
2019-05-07T15:15:55.133Z,100509.20
2019-05-07T15:18:27.457Z,100514.58
2019-05-07T15:21:01.761Z,100507.91
2019-05-07T15:23:36.187Z,100501.66
2019-05-07T15:26:07.543Z,100499.19
2019-05-07T15:28:41.785Z,100500.89
2019-05-07T15:31:17.843Z,100492.83
2019-05-07T15:33:48.967Z,100493.36
2019-05-07T15:36:19.795Z,100492.16
2019-05-07T15:38:52.163Z,100490.78
2019-05-07T15:41:23.470Z,100491.38
2019-05-07T15:43:55.421Z,100487.00
2019-05-07T15:46:27.153Z,100492.92
2019-05-07T15:48:58.424Z,100487.73
2019-05-07T15:51:29.435Z,100488.14
2019-05-07T15:54:03.399Z,100489.48
2019-05-07T15:56:34.098Z,100487.23
2019-05-07T15:59:05.509Z,100490.94
2019-05-07T16:01:36.895Z,100492.75
2019-05-07T16:04:19.114Z,100488.23
2019-05-07T16:06:42.486Z,100483.38
2019-05-07T16:09:16.943Z,100486.92
2019-05-07T16:11:49.593Z,100479.62
2019-05-07T16:14:26.793Z,100477.29
2019-05-07T16:16:59.209Z,100477.73
2019-05-07T16:19:32.139Z,100477.73
2019-05-07T16:22:04.516Z,100475.39
2019-05-07T16:24:35.513Z,100474.69
2019-05-07T16:27:06.242Z,100470.34
2019-05-07T16:29:36.934Z,100472.32
2019-05-07T16:32:08.536Z,100468.20
2019-05-07T16:34:39.579Z,100475.35
2019-05-07T16:37:12.312Z,100461.33
2019-05-07T16:39:43.411Z,100467.70
2019-05-07T16:42:14.550Z,100465.55
2019-05-07T16:44:45.340Z,100465.22
2019-05-07T16:47:16.422Z,100464.45
2019-05-07T16:49:47.696Z,100467.91
2019-05-07T16:52:18.666Z,100466.16
2019-05-07T16:54:49.343Z,100471.53
2019-05-07T16:57:27.720Z,100473.70
2019-05-07T17:00:02.909Z,100477.22
2019-05-07T17:02:45.875Z,100473.06
2019-05-07T17:05:19.696Z,100476.88
2019-05-07T17:08:02.493Z,100474.41
2019-05-07T17:10:34.765Z,100480.09
2019-05-07T17:13:09.932Z,100485.74
2019-05-07T17:15:59.369Z,100491.08
2019-05-07T17:18:32.865Z,100486.91
2019-05-07T17:21:07.703Z,100487.24
2019-05-07T17:23:52.471Z,100490.51
2019-05-07T17:26:26.853Z,100490.20
2019-05-07T17:28:57.877Z,100487.69
2019-05-07T17:31:28.749Z,100487.52
2019-05-07T17:33:59.451Z,100492.34
2019-05-07T17:36:32.845Z,100489.16
2019-05-07T17:39:04.066Z,100496.31
2019-05-07T17:41:36.907Z,100492.78
2019-05-07T17:44:07.889Z,100498.13
2019-05-07T17:46:38.839Z,100499.11
2019-05-07T17:49:11.851Z,100495.55
2019-05-07T17:51:45.607Z,100506.70
2019-05-07T17:54:16.469Z,100495.67
2019-05-07T17:56:47.136Z,100497.73
2019-05-07T17:59:18.251Z,100507.53
2019-05-07T18:01:53.408Z,100502.73
2019-05-07T18:04:24.436Z,100506.23
2019-05-07T18:06:55.175Z,100507.76
2019-05-07T18:09:26.328Z,100502.84
2019-05-07T18:11:57.054Z,100502.39
2019-05-07T18:14:29.149Z,100497.72
2019-05-07T18:17:01.997Z,100496.92
2019-05-07T18:19:33.351Z,100500.05
2019-05-07T18:22:04.275Z,100495.27
2019-05-07T18:24:35.422Z,100494.42
2019-05-07T18:27:08.364Z,100496.25
2019-05-07T18:29:39.517Z,100494.56
2019-05-07T18:32:12.406Z,100502.06
2019-05-07T18:34:43.498Z,100498.08
2019-05-07T18:37:14.643Z,100493.92
2019-05-07T18:39:45.577Z,100495.75
2019-05-07T18:42:16.404Z,100494.58
2019-05-07T18:44:47.571Z,100496.59
2019-05-07T18:47:18.715Z,100495.42
2019-05-07T18:49:51.716Z,100498.47
2019-05-07T18:52:26.050Z,100496.77
2019-05-07T18:54:57.279Z,100496.44
2019-05-07T18:57:28.274Z,100499.41
2019-05-07T19:00:00.857Z,100505.09
2019-05-07T19:02:32.033Z,100506.55
2019-05-07T19:05:02.904Z,100506.68
2019-05-07T19:07:33.713Z,100506.48
2019-05-07T19:10:05.622Z,100505.28
2019-05-07T19:12:37.836Z,100507.23
2019-05-07T19:15:09.810Z,100500.89
2019-05-07T19:17:42.656Z,100508.23
2019-05-07T19:20:14.578Z,100505.53
2019-05-07T19:22:45.349Z,100500.55
2019-05-07T19:25:16.611Z,100503.05
2019-05-07T19:27:47.730Z,100502.88
2019-05-07T19:30:18.985Z,100501.86
2019-05-07T19:32:52.028Z,100497.20
2019-05-07T19:35:23.243Z,100499.52
2019-05-07T19:37:54.927Z,100499.20
2019-05-07T19:40:25.615Z,100497.20
2019-05-07T19:42:57.320Z,100499.20
2019-05-07T19:45:28.271Z,100494.19
2019-05-07T19:47:59.021Z,100492.85
2019-05-07T19:50:29.815Z,100502.40
2019-05-07T19:53:02.905Z,100493.05
2019-05-07T19:55:54.423Z,100492.83
2019-05-07T19:58:25.542Z,100488.47
2019-05-07T20:00:57.362Z,100487.45
2019-05-07T20:03:29.639Z,100487.64
2019-05-07T20:06:02.444Z,100488.77
2019-05-07T20:08:32.804Z,100477.53
2019-05-07T20:11:23.582Z,100484.54
2019-05-07T20:13:54.609Z,100487.70
2019-05-07T20:16:25.639Z,100481.33
2019-05-07T20:18:56.663Z,100483.18
2019-05-07T20:21:27.332Z,100476.66
2019-05-07T20:23:58.145Z,100479.33
2019-05-07T20:26:29.108Z,100477.13
2019-05-07T20:28:59.859Z,100480.46
2019-05-07T20:31:33.942Z,100483.30
2019-05-07T20:34:04.979Z,100473.05
2019-05-07T20:36:35.929Z,100476.95
2019-05-07T20:39:08.810Z,100476.75
2019-05-07T20:41:39.503Z,100468.09
2019-05-07T20:44:11.923Z,100469.55
2019-05-07T20:46:43.184Z,100467.16
2019-05-07T20:49:14.394Z,100467.58
2019-05-07T20:51:45.470Z,100469.23
2019-05-07T20:54:27.125Z,100465.20
2019-05-07T20:57:02.375Z,100466.92
2019-05-07T20:59:33.608Z,100463.39
2019-05-07T21:02:04.487Z,100459.72
2019-05-07T21:04:35.534Z,100456.94
2019-05-07T21:07:11.667Z,100460.52
2019-05-07T21:09:42.351Z,100462.27
2019-05-07T21:12:13.429Z,100464.73
2019-05-07T21:14:44.467Z,100458.00
2019-05-07T21:17:15.168Z,100460.91
2019-05-07T21:19:47.239Z,100461.02
2019-05-07T21:22:17.988Z,100457.48
2019-05-07T21:24:49.935Z,100455.55
2019-05-07T21:27:20.963Z,100454.67
2019-05-07T21:29:52.745Z,100456.84
2019-05-07T21:32:23.919Z,100455.13
2019-05-07T21:34:54.896Z,100446.38
2019-05-07T21:37:25.892Z,100453.28
2019-05-07T21:39:56.574Z,100449.77
2019-05-07T21:42:27.557Z,100450.27
2019-05-07T21:44:58.501Z,100451.20
2019-05-07T21:47:29.447Z,100451.17
2019-05-07T21:50:02.536Z,100445.39
2019-05-07T21:52:34.506Z,100446.83
2019-05-07T21:55:17.853Z,100449.14
2019-05-07T21:57:52.341Z,100442.48
2019-05-07T22:00:32.585Z,100442.66
2019-05-07T22:03:16.104Z,100445.15
2019-05-07T22:05:47.722Z,100444.94
2019-05-07T22:08:18.671Z,100406.28
2019-05-07T22:10:49.934Z,100437.55
2019-05-07T22:13:22.110Z,100438.45
2019-05-07T22:15:55.199Z,100442.02
2019-05-07T22:18:26.811Z,100443.31
2019-05-07T22:20:57.838Z,100436.58
2019-05-07T22:23:28.521Z,100437.60
2019-05-07T22:26:16.453Z,100435.97
2019-05-07T22:28:33.719Z,100399.63
2019-05-07T22:31:04.564Z,100433.67
2019-05-07T22:33:37.156Z,100435.66
2019-05-07T22:36:08.087Z,100428.26
2019-05-07T22:38:40.684Z,100427.42
2019-05-07T22:41:12.979Z,100430.34
2019-05-07T22:43:43.794Z,100423.56
2019-05-07T22:46:14.885Z,100424.13
2019-05-07T22:48:45.895Z,100412.44
2019-05-07T22:51:16.561Z,100417.70
2019-05-07T22:53:47.814Z,100423.41
2019-05-07T22:56:31.948Z,100417.11
2019-05-07T22:58:52.495Z,100409.59
2019-05-07T23:01:23.311Z,100404.48
2019-05-07T23:03:54.448Z,100406.12
2019-05-07T23:06:25.357Z,100404.32
2019-05-07T23:08:56.352Z,100406.48
2019-05-07T23:11:27.423Z,100401.39
2019-05-07T23:13:58.742Z,100404.58
2019-05-07T23:16:29.784Z,100391.12
2019-05-07T23:19:00.815Z,100393.46
2019-05-07T23:21:32.066Z,100383.95
2019-05-07T23:24:03.200Z,100394.53
2019-05-07T23:26:47.267Z,100384.39
2019-05-07T23:29:07.366Z,100381.01
2019-05-07T23:31:38.050Z,100383.06
2019-05-07T23:34:08.992Z,100377.07
2019-05-07T23:36:42.096Z,100368.75
2019-05-07T23:39:14.398Z,100365.38
2019-05-07T23:41:46.759Z,100362.95
2019-05-07T23:44:18.918Z,100360.28
2019-05-07T23:46:51.855Z,100353.16
2019-05-07T23:49:23.178Z,100350.27
2019-05-07T23:51:54.623Z,100345.94
2019-05-07T23:54:25.636Z,100345.45
2019-05-07T23:57:05.775Z,100342.88
2019-05-07T23:59:29.762Z,100335.30
